Flight Track Log - Related Links

Times and Time Zones

All times are in EDT time to prevent confusion due to time zone crossing. See the AMF9313 flight status page for this flight to view local times or setup timezone preferences in your user account.

Time Position Orientation Groundspeed Altitude Reporting Facility
EDT Latitude Longitude Course Direction KTS MPH feet Rate Location/Type
Thu 05:55:56 AM 38.1167 -85.8167 232° Southwest 179 206 5,300  Level Louisville TRACON
Thu 05:57:07 AM 38.0811 -85.8847 236° Southwest 185 213 7,500 1,227 Climbing Indianapolis Center
Thu 05:58:08 AM 38.0569 -85.9514 245° Southwest 205 236 8,000 248 Climbing Indianapolis Center
Thu 05:59:08 AM 38.0100 -86.0025 221° Southwest 237 273 8,000  Level Indianapolis Center
Thu 06:00:00 AM 37.9433 -86.1361 232° Southwest  Level FlightAware Approximate
Thu 06:00:09 AM 37.9458 -86.0278 197° South 239 275 8,000  Level Indianapolis Center
Thu 06:01:00 AM 37.9034 -86.2009 232° Southwest  Level FlightAware Approximate
Thu 06:01:09 AM 37.8842 -86.0575 201° Southwest 237 273 8,000  Level Indianapolis Center
Thu 06:02:10 AM 37.8208 -86.0825 197° South 236 272 8,000  Level Indianapolis Center
Thu 06:03:10 AM 37.7586 -86.1075 198° South 235 270 8,000  Level Indianapolis Center
Thu 06:04:11 AM 37.6958 -86.1308 196° South 233 268 8,000  Level Indianapolis Center
Thu 06:05:11 AM 37.6322 -86.1542 196° South 235 270 8,000  Level Indianapolis Center
Thu 06:06:12 AM 37.5672 -86.1642 187° South 234 269 8,000  Level Indianapolis Center
Thu 06:07:12 AM 37.5075 -86.1750 188° South 238 274 8,000  Level Indianapolis Center
Thu 06:07:56 AM 37.4514 -86.1875 190° South 240 276 8,000  Level Memphis Center
Thu 06:08:56 AM 37.3872 -86.2042 192° South 247 284 8,000  Level Memphis Center
Thu 06:09:56 AM 37.3211 -86.2206 191° South 247 284 8,000 -50 Level Memphis Center
Thu 06:10:56 AM 37.2653 -86.2314 189° South 234 269 7,900  Descending Memphis Center
Thu 06:11:56 AM 37.1989 -86.2400 186° South 240 276 8,000 50 Climbing Memphis Center
Thu 06:12:56 AM 37.1350 -86.2589 193° South 240 276 8,000  Level Memphis Center
Thu 06:14:56 AM 37.0069 -86.2939 192° South 240 276 8,000  Level Memphis Center
Thu 06:15:56 AM 36.9408 -86.3078 190° South 240 276 8,000  Level Memphis Center
Thu 06:16:56 AM 36.8767 -86.3214 190° South 235 270 8,000  Level Memphis Center
Thu 06:17:56 AM 36.8064 -86.3406 192° South 235 270 8,000  Level Memphis Center
Thu 06:18:56 AM 36.7422 -86.3514 188° South 235 270 8,000  Level Memphis Center
Thu 06:19:56 AM 36.6758 -86.3675 191° South 235 270 8,000 -450 Level Memphis Center
Thu 06:20:56 AM 36.6097 -86.3839 191° South 241 277 7,100 -850 Descending Memphis Center
Thu 06:21:56 AM 36.5414 -86.4003 191° South 246 283 6,300 -900 Descending Memphis Center
Thu 06:22:56 AM 36.4731 -86.4139 189° South 251 289 5,300 -1,100 Descending Memphis Center
Thu 06:23:56 AM 36.4028 -86.4328 192° South 256 295 4,100 -1,050 Descending Memphis Center
Thu 06:24:56 AM 36.3408 -86.4433 188° South 256 295 3,200 -550 Descending Memphis Center
Thu 06:25:56 AM 36.2744 -86.4594 191° South 250 288 3,000 -250 Descending Memphis Center
Thu 06:26:56 AM 36.2189 -86.4775 195° South 226 260 2,700 -450 Descending Memphis Center
Thu 06:27:56 AM 36.1608 -86.4958 194° South 218 251 2,100 -500 Descending Memphis Center
Thu 06:28:56 AM 36.1053 -86.5139 195° South 202 232 1,700 -300 Descending Memphis Center
Thu 06:29:56 AM 36.0575 -86.5186 185° South 187 215 1,500 -550 Descending Memphis Center
Thu 06:30:56 AM 36.0219 -86.5203 182° South 152 175 600 -500 Descending Memphis Center
Thu 06:31:56 AM 35.9783 -86.5250 185° South 145 167 500 -100 Descending Memphis Center

Login

Don't have an account? Register now (free) for customized features, flight alerts, and more!